Time;durP1;ratioP1;P1;durP2;ratioP2;P2;SDS_P1;SDS_P2;PMS_P1;PMS_P2;Temp;Humidity;BMP_temperature;BMP_pressure;BME280_temperature;BME280_humidity;BME280_pressure;Samples;Min_cycle;Max_cycle;Signal;HPM_P1;HPM_P2
2021/09/15 00:02:11;;;;;;;12.70;11.60;;;19.90;99.90;;;;;;5056361;28;20778;-47
2021/09/15 00:04:41;;;;;;;13.90;11.43;;;19.80;99.90;;;;;;5057018;28;20462;-48
2021/09/15 00:07:08;;;;;;;13.27;12.17;;;19.80;1.00;;;;;;5055786;28;20831;-45
2021/09/15 00:09:35;;;;;;;12.03;11.07;;;19.80;1.00;;;;;;5056553;28;20967;-48
2021/09/15 00:12:03;;;;;;;12.90;11.60;;;19.80;1.00;;;;;;5057061;28;20493;-50
2021/09/15 00:14:30;;;;;;;11.30;10.30;;;19.70;1.00;;;;;;5060489;28;20888;-48
2021/09/15 00:16:56;;;;;;;16.83;11.40;;;19.60;1.00;;;;;;5060125;28;20489;-48
2021/09/15 00:19:23;;;;;;;12.00;10.90;;;19.60;47.60;;;;;;5060384;28;20888;-45
2021/09/15 00:21:52;;;;;;;12.07;11.07;;;19.70;46.80;;;;;;5060190;28;20437;-46
2021/09/15 00:24:19;;;;;;;12.50;11.60;;;19.70;91.20;;;;;;5059636;28;20525;-47
2021/09/15 00:26:49;;;;;;;13.00;12.00;;;19.70;1.00;;;;;;5060008;28;20504;-50
2021/09/15 00:29:16;;;;;;;14.30;12.47;;;19.80;1.00;;;;;;5059361;28;20462;-54
2021/09/15 00:31:47;;;;;;;13.47;12.17;;;19.90;1.00;;;;;;5060141;28;20810;-52
2021/09/15 00:34:14;;;;;;;13.10;11.90;;;19.80;1.00;;;;;;5060476;28;20549;-47
2021/09/15 00:36:44;;;;;;;12.80;11.50;;;19.90;1.00;;;;;;5060356;28;20502;-54
2021/09/15 00:39:15;;;;;;;12.53;11.53;;;19.80;99.90;;;;;;5059672;28;20496;-54
2021/09/15 00:41:42;;;;;;;12.33;11.07;;;19.70;1.00;;;;;;5060451;28;20497;-51
2021/09/15 00:44:10;;;;;;;12.87;11.67;;;19.70;1.00;;;;;;5059941;28;20511;-53
2021/09/15 00:46:38;;;;;;;13.13;11.93;;;19.70;1.00;;;;;;5060139;28;20468;-51
2021/09/15 00:49:06;;;;;;;13.17;11.87;;;19.60;1.00;;;;;;5059956;28;20493;-51
2021/09/15 00:51:38;;;;;;;12.43;11.33;;;19.60;75.10;;;;;;5065561;28;20555;-52
2021/09/15 00:54:06;;;;;;;12.63;11.53;;;19.50;99.90;;;;;;5071282;28;20469;-48
2021/09/15 00:56:36;;;;;;;13.20;12.20;;;19.50;51.90;;;;;;5059697;28;20489;-48
2021/09/15 00:59:04;;;;;;;13.43;12.23;;;19.50;99.90;;;;;;5058498;28;20476;-48
2021/09/15 01:01:31;;;;;;;13.37;12.07;;;19.40;99.90;;;;;;5059484;28;20477;-47
2021/09/15 01:03:59;;;;;;;13.30;12.03;;;19.40;1.00;;;;;;5059285;28;20668;-49
2021/09/15 01:06:30;;;;;;;12.70;11.60;;;19.30;99.90;;;;;;5059111;28;20539;-51
2021/09/15 01:09:00;;;;;;;11.93;10.87;;;19.30;99.90;;;;;;5059593;28;20827;-48
2021/09/15 01:11:30;;;;;;;12.57;11.67;;;19.30;79.00;;;;;;5069187;28;20489;-47
2021/09/15 01:14:00;;;;;;;13.40;12.20;;;19.30;1.00;;;;;;5068114;28;20497;-45
2021/09/15 01:16:26;;;;;;;12.60;11.50;;;19.20;99.90;;;;;;5059512;28;20466;-47
2021/09/15 01:18:53;;;;;;;14.00;12.70;;;19.30;99.90;;;;;;5059262;28;20508;-50
2021/09/15 01:21:23;;;;;;;15.00;13.70;;;19.20;99.90;;;;;;5058677;28;20513;-54
2021/09/15 01:23:50;;;;;;;13.30;12.00;;;19.20;1.00;;;;;;5058040;28;20525;-52
2021/09/15 01:26:20;;;;;;;13.60;12.50;;;19.10;1.00;;;;;;5058623;28;20513;-50
2021/09/15 01:28:47;;;;;;;14.67;13.33;;;19.10;1.00;;;;;;5058203;28;20873;-53
2021/09/15 01:31:15;;;;;;;12.97;11.77;;;19.20;23.80;;;;;;5058107;28;20545;-51
2021/09/15 01:33:42;;;;;;;14.63;13.23;;;19.20;99.90;;;;;;5059191;28;20486;-54
2021/09/15 01:36:09;;;;;;;13.83;12.73;;;19.20;99.90;;;;;;5058685;28;20905;-55
2021/09/15 01:38:37;;;;;;;14.10;12.90;;;19.30;1.00;;;;;;5058451;28;20944;-51
2021/09/15 01:41:04;;;;;;;15.47;14.17;;;19.40;1.00;;;;;;5058807;28;20447;-51
2021/09/15 01:43:31;;;;;;;14.20;11.80;;;19.30;1.00;;;;;;5058421;28;20858;-51
2021/09/15 01:45:59;;;;;;;12.40;11.30;;;19.40;99.90;;;;;;5059088;28;20466;-47
2021/09/15 01:48:27;;;;;;;14.87;13.50;;;19.30;99.90;;;;;;5058892;28;20534;-48
2021/09/15 01:50:54;;;;;;;13.20;12.17;;;19.30;54.60;;;;;;5058279;28;20827;-50
2021/09/15 01:53:21;;;;;;;13.10;12.00;;;19.40;99.90;;;;;;5058290;28;20517;-49
2021/09/15 01:55:49;;;;;;;14.73;13.27;;;19.40;1.00;;;;;;5058330;28;20849;-53
2021/09/15 01:58:19;;;;;;;12.87;11.73;;;19.40;1.00;;;;;;5058009;28;20527;-47
2021/09/15 02:00:47;;;;;;;13.50;12.47;;;19.30;99.90;;;;;;5058750;28;20509;-45
2021/09/15 02:03:14;;;;;;;13.80;12.60;;;19.40;1.00;;;;;;5058308;28;20468;-51
2021/09/15 02:05:41;;;;;;;13.30;12.20;;;19.30;99.90;;;;;;5058041;28;20566;-46
2021/09/15 02:08:08;;;;;;;13.87;12.67;;;19.30;1.00;;;;;;5058110;28;20823;-45
2021/09/15 02:10:35;;;;;;;13.13;12.10;;;19.30;1.00;;;;;;5058231;28;20569;-53
2021/09/15 02:13:03;;;;;;;12.80;11.80;;;19.30;1.00;;;;;;5058168;28;20465;-51
2021/09/15 02:15:30;;;;;;;14.60;13.20;;;19.30;99.90;;;;;;5058237;28;20462;-51
2021/09/15 02:17:59;;;;;;;13.20;11.90;;;19.30;99.90;;;;;;5058323;28;20492;-54
2021/09/15 02:20:26;;;;;;;15.10;13.87;;;19.40;99.90;;;;;;5058268;28;20478;-52
2021/09/15 02:22:53;;;;;;;13.33;12.10;;;19.40;99.90;;;;;;5058602;28;20485;-52
2021/09/15 02:25:20;;;;;;;13.30;12.30;;;19.40;30.10;;;;;;5057850;28;20537;-51
2021/09/15 02:27:47;;;;;;;14.17;12.80;;;19.40;1.00;;;;;;5058174;28;20495;-49
2021/09/15 02:30:15;;;;;;;14.63;13.30;;;19.40;1.00;;;;;;5058437;28;20508;-45
2021/09/15 02:32:42;;;;;;;15.13;14.00;;;19.40;1.00;;;;;;5058140;28;20504;-50
2021/09/15 02:35:10;;;;;;;14.03;12.63;;;19.40;1.00;;;;;;5057185;28;20459;-47
2021/09/15 02:37:37;;;;;;;14.03;12.83;;;19.50;1.00;;;;;;5057596;28;20471;-50
2021/09/15 02:40:05;;;;;;;13.90;12.73;;;19.50;1.00;;;;;;5058282;28;20490;-47
2021/09/15 02:42:34;;;;;;;15.23;13.83;;;19.40;1.00;;;;;;5057931;28;20498;-51
2021/09/15 02:45:02;;;;;;;14.90;13.80;;;19.40;1.00;;;;;;5057696;28;20777;-45
2021/09/15 02:47:30;;;;;;;15.17;13.87;;;19.40;1.00;;;;;;5057667;28;20505;-48
2021/09/15 02:49:57;;;;;;;16.87;15.27;;;19.40;1.00;;;;;;5057583;28;20549;-47
2021/09/15 02:52:24;;;;;;;15.10;13.90;;;19.40;1.00;;;;;;5057654;28;20490;-45
2021/09/15 02:54:51;;;;;;;16.87;15.40;;;19.40;1.00;;;;;;5057728;28;20459;-53
2021/09/15 02:57:18;;;;;;;17.00;15.40;;;19.40;1.00;;;;;;5057424;28;20469;-44
2021/09/15 02:59:45;;;;;;;17.47;15.87;;;19.40;57.10;;;;;;5057978;28;20501;-51
2021/09/15 03:02:12;;;;;;;17.10;15.70;;;19.30;99.90;;;;;;5057589;28;20521;-49
2021/09/15 03:04:40;;;;;;;16.63;15.10;;;19.40;99.90;;;;;;5057766;28;20563;-45
2021/09/15 03:07:07;;;;;;;16.77;15.30;;;19.30;99.90;;;;;;5057189;28;20815;-53
2021/09/15 03:09:34;;;;;;;16.17;14.63;;;19.30;99.90;;;;;;5056844;28;20897;-48
2021/09/15 03:12:01;;;;;;;16.30;15.00;;;19.30;99.90;;;;;;5057551;28;20462;-51
2021/09/15 03:14:28;;;;;;;15.20;13.90;;;19.20;1.00;;;;;;5056381;28;20458;-47
2021/09/15 03:16:55;;;;;;;16.93;15.33;;;19.30;65.10;;;;;;5056374;28;20802;-45
2021/09/15 03:19:21;;;;;;;16.37;14.67;;;19.20;99.90;;;;;;5056676;28;20502;-54
2021/09/15 03:21:50;;;;;;;16.17;14.77;;;19.20;1.00;;;;;;5056822;28;20524;-52
2021/09/15 03:24:17;;;;;;;16.17;14.77;;;19.20;99.90;;;;;;5057195;28;20504;-50
2021/09/15 03:26:44;;;;;;;15.10;13.80;;;19.10;1.00;;;;;;5057014;28;20524;-45
2021/09/15 03:29:15;;;;;;;17.00;15.50;;;19.10;66.60;;;;;;5056611;28;20489;-51
2021/09/15 03:31:46;;;;;;;15.47;13.87;;;19.20;1.00;;;;;;5056180;28;20502;-51
2021/09/15 03:34:13;;;;;;;16.33;15.03;;;19.10;1.00;;;;;;5057229;28;20819;-51
2021/09/15 03:36:40;;;;;;;16.87;15.17;;;19.10;1.00;;;;;;5056784;28;20490;-53
2021/09/15 03:39:08;;;;;;;15.17;13.73;;;19.10;99.90;;;;;;5056427;28;20494;-52
2021/09/15 03:41:35;;;;;;;14.70;13.30;;;19.00;1.00;;;;;;5056536;28;20909;-54
2021/09/15 03:44:02;;;;;;;16.47;15.10;;;19.00;1.00;;;;;;5056364;28;20529;-54
2021/09/15 03:46:29;;;;;;;15.73;14.33;;;19.00;1.00;;;;;;5055743;28;20505;-52
2021/09/15 03:48:56;;;;;;;16.30;14.70;;;19.00;1.00;;;;;;5055587;28;20470;-53
2021/09/15 03:51:23;;;;;;;18.13;16.53;;;19.00;31.80;;;;;;5056237;28;20556;-51
2021/09/15 03:53:50;;;;;;;15.80;14.40;;;19.00;99.90;;;;;;5055936;28;20454;-52
2021/09/15 03:56:18;;;;;;;15.07;13.90;;;19.00;99.90;;;;;;5056998;28;20497;-51
2021/09/15 03:58:45;;;;;;;16.40;14.70;;;19.00;99.90;;;;;;5056855;28;20466;-50
2021/09/15 04:01:15;;;;;;;16.93;15.60;;;19.00;99.90;;;;;;5056195;28;20466;-48
2021/09/15 04:03:43;;;;;;;15.70;14.10;;;19.00;99.90;;;;;;5056706;28;20494;-51
2021/09/15 04:06:09;;;;;;;17.00;15.50;;;19.00;99.90;;;;;;5056153;28;20493;-51
2021/09/15 04:08:36;;;;;;;16.23;15.03;;;19.00;99.90;;;;;;5056720;28;20920;-55
2021/09/15 04:11:04;;;;;;;17.03;15.57;;;19.10;99.90;;;;;;5055761;28;20501;-54
2021/09/15 04:13:32;;;;;;;16.47;15.00;;;19.00;99.90;;;;;;5056550;28;20824;-54
2021/09/15 04:15:59;;;;;;;17.80;16.17;;;19.00;99.90;;;;;;5056685;28;20472;-57
2021/09/15 04:18:26;;;;;;;16.80;15.30;;;19.00;99.90;;;;;;5056917;28;20629;-56
2021/09/15 04:20:53;;;;;;;15.00;13.80;;;19.00;99.90;;;;;;5056929;28;20857;-56
2021/09/15 04:23:26;;;;;;;16.40;14.90;;;19.00;99.90;;;;;;5056518;28;20472;-57
2021/09/15 04:31:24;;;;;;;17.23;15.63;;;19.10;99.90;;;;;;5056085;28;20457;-56
2021/09/15 04:33:52;;;;;;;16.30;14.80;;;19.10;51.90;;;;;;5055875;28;20466;-57
2021/09/15 04:36:19;;;;;;;17.33;15.10;;;19.10;38.20;;;;;;5056702;28;20912;-57
2021/09/15 04:38:48;;;;;;;16.13;14.83;;;19.10;95.20;;;;;;5055781;28;20490;-56
2021/09/15 04:41:16;;;;;;;16.87;15.43;;;19.10;99.90;;;;;;5055848;28;20498;-57
2021/09/15 04:43:44;;;;;;;16.77;15.37;;;19.00;99.90;;;;;;5056058;28;20500;-54
2021/09/15 04:46:11;;;;;;;16.10;14.50;;;19.00;99.90;;;;;;5056176;28;20501;-57
2021/09/15 04:48:41;;;;;;;15.40;13.90;;;19.00;99.90;;;;;;5055482;28;20501;-54
2021/09/15 04:51:08;;;;;;;17.30;15.90;;;19.00;99.90;;;;;;5055790;28;20556;-57
2021/09/15 04:53:35;;;;;;;16.00;14.47;;;19.00;99.90;;;;;;5065970;28;20821;-57
2021/09/15 04:56:02;;;;;;;16.27;14.83;;;19.00;99.90;;;;;;5055801;28;20843;-59
2021/09/15 04:58:29;;;;;;;16.80;15.20;;;19.00;99.90;;;;;;5056290;28;20871;-59
2021/09/15 05:00:57;;;;;;;17.30;15.70;;;19.00;99.90;;;;;;5059088;28;20472;-54
2021/09/15 05:03:24;;;;;;;16.73;15.23;;;19.00;99.90;;;;;;5058832;28;20493;-56
2021/09/15 05:05:51;;;;;;;16.90;15.50;;;19.00;99.90;;;;;;5059682;28;20971;-57
2021/09/15 05:08:20;;;;;;;16.93;15.40;;;19.00;99.90;;;;;;5058047;28;20473;-56
2021/09/15 05:10:46;;;;;;;17.50;16.00;;;18.90;99.90;;;;;;5053220;28;20466;-55
2021/09/15 05:13:16;;;;;;;18.60;17.10;;;19.00;99.90;;;;;;5057929;28;20476;-53
2021/09/15 05:15:43;;;;;;;20.50;17.60;;;19.00;99.90;;;;;;5059008;28;20927;-54
2021/09/15 05:18:12;;;;;;;17.40;15.87;;;19.00;99.90;;;;;;5058201;28;20463;-55
2021/09/15 05:20:39;;;;;;;17.80;16.20;;;19.00;99.90;;;;;;5058500;28;20746;-57
2021/09/15 05:23:05;;;;;;;19.63;17.67;;;19.00;99.90;;;;;;5059179;28;20466;-55
2021/09/15 05:25:32;;;;;;;19.07;17.37;;;19.00;99.90;;;;;;5058262;28;20536;-58
2021/09/15 05:28:00;;;;;;;20.40;18.50;;;18.90;99.90;;;;;;5058231;28;20490;-58
2021/09/15 05:30:27;;;;;;;19.40;17.77;;;18.90;99.90;;;;;;5059115;28;20443;-59
2021/09/15 05:32:54;;;;;;;19.73;17.83;;;18.90;99.90;;;;;;5059018;28;20552;-59
2021/09/15 05:35:22;;;;;;;19.00;17.30;;;18.90;99.90;;;;;;5058473;28;20822;-60
2021/09/15 05:37:49;;;;;;;19.70;18.00;;;18.90;99.90;;;;;;5059039;28;20500;-60
2021/09/15 05:40:16;;;;;;;20.87;19.00;;;19.00;99.90;;;;;;5059068;28;20502;-61
2021/09/15 05:42:49;;;;;;;21.23;19.27;;;19.00;99.90;;;;;;5059147;28;20490;-61
2021/09/15 05:45:16;;;;;;;21.47;19.20;;;19.00;99.90;;;;;;5058643;28;20562;-62
2021/09/15 05:47:43;;;;;;;20.63;18.90;;;19.00;99.90;;;;;;5058822;28;20462;-62
2021/09/15 05:50:10;;;;;;;21.57;19.33;;;19.00;99.90;;;;;;5062326;28;20483;-62
2021/09/15 05:52:39;;;;;;;22.80;20.63;;;19.00;99.90;;;;;;5071447;28;20536;-62
2021/09/15 05:55:07;;;;;;;20.50;18.70;;;19.00;99.90;;;;;;5056973;28;20958;-62
2021/09/15 05:57:37;;;;;;;19.90;18.10;;;19.00;99.90;;;;;;5057674;28;20437;-63
2021/09/15 06:00:11;;;;;;;20.57;18.53;;;19.00;99.90;;;;;;5058523;28;20778;-62
2021/09/15 06:02:38;;;;;;;20.53;18.53;;;19.10;99.90;;;;;;5058406;28;20785;-62
2021/09/15 06:05:06;;;;;;;20.93;19.00;;;19.00;99.90;;;;;;5057616;28;20547;-62
2021/09/15 06:07:37;;;;;;;20.50;18.70;;;19.00;99.90;;;;;;5056133;28;20727;-62
2021/09/15 06:10:05;;;;;;;19.00;17.40;;;19.00;99.90;;;;;;5052517;28;20534;-62
2021/09/15 06:12:32;;;;;;;20.83;18.83;;;19.00;99.90;;;;;;5058337;28;20560;-62
2021/09/15 06:15:02;;;;;;;18.77;17.07;;;19.00;99.90;;;;;;5057053;28;20884;-62
2021/09/15 06:17:29;;;;;;;20.10;18.50;;;19.00;99.90;;;;;;5057553;28;20917;-62
2021/09/15 06:19:56;;;;;;;20.10;18.07;;;19.00;99.90;;;;;;5057293;28;20857;-62
2021/09/15 06:22:29;;;;;;;20.20;18.30;;;19.00;99.90;;;;;;5058309;28;20469;-62
2021/09/15 06:24:58;;;;;;;18.30;16.57;;;19.00;99.90;;;;;;5057260;28;20815;-62
2021/09/15 06:27:27;;;;;;;19.90;18.20;;;19.10;99.90;;;;;;5057464;28;20458;-62
2021/09/15 06:29:56;;;;;;;17.07;15.63;;;19.10;99.90;;;;;;5058055;28;20481;-62
2021/09/15 06:32:25;;;;;;;19.07;17.37;;;19.20;99.90;;;;;;5057304;28;20553;-61
2021/09/15 06:34:55;;;;;;;17.37;15.97;;;19.20;99.90;;;;;;5058240;28;20458;-61
2021/09/15 06:37:24;;;;;;;18.60;17.10;;;19.30;99.90;;;;;;5057258;28;20444;-61
2021/09/15 06:39:51;;;;;;;17.13;15.43;;;19.30;99.90;;;;;;5057531;28;20558;-61
2021/09/15 06:42:19;;;;;;;16.87;15.37;;;19.40;99.90;;;;;;5056907;28;20497;-61
2021/09/15 06:44:47;;;;;;;16.33;14.87;;;19.30;99.90;;;;;;5057072;28;20581;-61
2021/09/15 06:47:14;;;;;;;17.60;15.93;;;19.30;99.90;;;;;;5057081;28;20466;-61
2021/09/15 06:49:43;;;;;;;16.63;15.13;;;19.40;99.90;;;;;;5056688;28;20501;-61
2021/09/15 06:52:13;;;;;;;15.93;14.50;;;19.30;99.90;;;;;;5057821;28;20466;-61
2021/09/15 06:54:45;;;;;;;16.63;15.13;;;19.30;99.90;;;;;;5057102;28;20498;-61
2021/09/15 06:57:11;;;;;;;16.47;14.83;;;19.30;99.90;;;;;;5056399;28;20509;-61
2021/09/15 06:59:40;;;;;;;16.40;14.90;;;19.30;99.90;;;;;;5057011;28;20850;-60
2021/09/15 07:02:09;;;;;;;16.20;14.60;;;19.40;99.90;;;;;;5057102;28;20440;-61
2021/09/15 07:04:36;;;;;;;17.33;15.63;;;19.50;99.90;;;;;;5057022;28;20467;-61
2021/09/15 07:07:03;;;;;;;15.33;14.03;;;19.60;99.90;;;;;;5056833;28;20465;-60
2021/09/15 07:09:30;;;;;;;16.57;14.70;;;19.60;99.90;;;;;;5057149;28;20462;-60
2021/09/15 07:11:57;;;;;;;14.77;13.57;;;19.70;99.90;;;;;;5060290;28;20521;-59
2021/09/15 07:14:24;;;;;;;14.47;13.17;;;19.70;99.90;;;;;;5066608;28;20828;-60
2021/09/15 07:16:53;;;;;;;14.77;13.30;;;19.80;99.90;;;;;;5055944;28;20549;-60
2021/09/15 07:19:20;;;;;;;13.67;12.47;;;19.80;99.90;;;;;;5055785;28;20556;-60
2021/09/15 07:21:47;;;;;;;13.53;12.20;;;19.80;99.90;;;;;;5056226;28;20471;-60
2021/09/15 07:24:17;;;;;;;13.70;11.77;;;19.90;99.90;;;;;;5056637;28;20852;-60
2021/09/15 07:26:47;;;;;;;13.47;12.17;;;19.90;99.90;;;;;;5056019;28;20564;-60
2021/09/15 07:29:13;;;;;;;11.93;10.93;;;19.90;99.90;;;;;;5056433;28;20576;-60
2021/09/15 07:31:42;;;;;;;13.10;11.80;;;20.00;99.90;;;;;;5056627;28;20487;-59
2021/09/15 07:34:13;;;;;;;11.50;10.60;;;20.00;77.00;;;;;;5056701;28;20470;-60
2021/09/15 07:36:40;;;;;;;12.13;10.83;;;19.90;1.00;;;;;;5057036;28;20497;-58
2021/09/15 07:39:08;;;;;;;10.63;9.73;;;20.00;1.00;;;;;;5056646;28;20966;-60
2021/09/15 07:41:35;;;;;;;12.77;11.53;;;20.00;1.00;;;;;;5056447;28;20816;-59
2021/09/15 07:44:02;;;;;;;12.03;10.90;;;20.00;1.00;;;;;;5056876;28;20488;-60
2021/09/15 07:46:36;;;;;;;13.03;10.80;;;20.10;1.00;;;;;;5056825;28;20532;-59
2021/09/15 07:49:03;;;;;;;10.63;9.53;;;20.20;99.90;;;;;;5056678;28;20469;-59
2021/09/15 07:51:31;;;;;;;10.40;9.43;;;20.30;1.00;;;;;;5055662;28;20470;-57
2021/09/15 07:53:59;;;;;;;9.87;8.63;;;20.30;1.00;;;;;;5056440;28;20497;-58
2021/09/15 07:56:27;;;;;;;10.20;9.30;;;20.30;99.90;;;;;;5057084;28;20462;-57
2021/09/15 07:59:01;;;;;;;11.50;10.40;;;20.30;1.00;;;;;;5055281;28;20804;-58
2021/09/15 08:01:30;;;;;;;10.70;9.60;;;20.30;1.00;;;;;;5055600;28;20774;-58
2021/09/15 08:03:57;;;;;;;10.03;9.20;;;20.20;99.90;;;;;;5056343;28;20552;-56
2021/09/15 08:06:24;;;;;;;11.90;10.80;;;20.20;1.00;;;;;;5056735;28;20796;-55
2021/09/15 08:08:52;;;;;;;11.03;10.00;;;20.10;1.00;;;;;;5056776;28;20486;-58
2021/09/15 08:11:19;;;;;;;11.73;10.57;;;20.10;99.90;;;;;;5055399;28;20511;-58
2021/09/15 08:13:48;;;;;;;11.33;10.10;;;20.00;1.00;;;;;;5056351;28;20466;-58
2021/09/15 08:16:22;;;;;;;10.40;9.40;;;20.00;99.90;;;;;;5056596;28;20868;-57
2021/09/15 08:18:50;;;;;;;11.40;10.13;;;20.00;1.00;;;;;;5056721;28;20486;-55
2021/09/15 08:21:17;;;;;;;11.33;10.20;;;19.90;99.90;;;;;;5056400;28;20462;-58
2021/09/15 08:23:44;;;;;;;10.50;9.57;;;19.90;1.00;;;;;;5056480;28;20928;-52
2021/09/15 08:26:12;;;;;;;10.40;9.40;;;19.90;99.90;;;;;;5055826;28;20521;-58
2021/09/15 08:28:42;;;;;;;9.10;8.30;;;20.00;99.90;;;;;;5056454;28;20931;-54
2021/09/15 08:31:10;;;;;;;10.50;9.50;;;20.10;31.60;;;;;;5056297;28;20498;-53
2021/09/15 08:33:37;;;;;;;9.83;8.93;;;20.20;99.90;;;;;;5056135;28;20465;-57
2021/09/15 08:36:04;;;;;;;10.37;9.40;;;20.30;1.00;;;;;;5060223;28;20493;-57
2021/09/15 08:38:31;;;;;;;8.87;8.00;;;20.30;1.00;;;;;;5060106;28;20524;-57
2021/09/15 08:40:58;;;;;;;9.30;8.50;;;20.30;99.90;;;;;;5059741;28;20520;-56
2021/09/15 08:43:29;;;;;;;8.63;7.93;;;20.30;99.90;;;;;;5060296;28;20768;-53
2021/09/15 08:46:05;;;;;;;10.30;9.20;;;20.30;99.90;;;;;;5058528;28;20493;-57
2021/09/15 08:48:37;;;;;;;10.20;8.60;;;20.30;99.90;;;;;;5059762;28;20465;-56
2021/09/15 08:51:05;;;;;;;9.13;8.33;;;20.30;99.90;;;;;;5059291;28;20566;-53
2021/09/15 08:53:32;;;;;;;8.70;7.80;;;20.30;99.90;;;;;;5059455;28;20805;-56
2021/09/15 08:55:59;;;;;;;9.87;8.97;;;20.30;99.90;;;;;;5062844;28;20816;-57
2021/09/15 08:58:31;;;;;;;8.87;8.03;;;20.20;99.90;;;;;;5062334;28;20486;-55
2021/09/15 09:01:09;;;;;;;7.90;7.20;;;20.20;99.90;;;;;;5058176;28;20520;-56
2021/09/15 09:03:36;;;;;;;8.57;7.77;;;20.20;99.90;;;;;;5059565;28;20490;-56
2021/09/15 09:06:17;;;;;;;8.73;8.13;;;20.30;99.90;;;;;;5057828;28;20496;-58
2021/09/15 09:08:52;;;;;;;8.90;8.00;;;20.30;99.90;;;;;;5041875;28;20465;-56
2021/09/15 09:11:20;;;;;;;8.67;7.87;;;20.40;99.90;;;;;;5045603;28;20468;-56
2021/09/15 09:13:54;;;;;;;9.60;8.67;;;20.50;1.00;;;;;;5059068;28;20915;-53
2021/09/15 09:16:23;;;;;;;13.03;7.70;;;20.50;1.00;;;;;;5059883;28;20465;-53
2021/09/15 09:18:57;;;;;;;10.10;8.57;;;20.50;1.00;;;;;;5058892;28;20496;-52
2021/09/15 09:21:29;;;;;;;9.70;8.53;;;20.60;1.00;;;;;;5058662;28;20453;-57
2021/09/15 09:23:59;;;;;;;9.03;8.23;;;20.50;1.00;;;;;;5044772;28;20465;-55
2021/09/15 09:26:46;;;;;;;11.00;9.90;;;20.50;1.00;;;;;;5058524;28;20593;-57
2021/09/15 09:29:16;;;;;;;10.10;8.37;;;20.40;1.00;;;;;;5059092;28;20466;-56
2021/09/15 09:31:58;;;;;;;10.30;9.40;;;20.30;21.10;;;;;;5057913;28;20462;-60
2021/09/15 09:34:25;;;;;;;12.00;10.17;;;20.20;99.90;;;;;;5051216;28;20901;-60
2021/09/15 09:37:06;;;;;;;9.50;8.77;;;20.20;1.00;;;;;;5059115;28;20489;-61
2021/09/15 09:39:41;;;;;;;11.53;9.43;;;20.10;99.90;;;;;;5059032;28;20474;-60
2021/09/15 09:42:32;;;;;;;11.80;10.57;;;20.00;1.00;;;;;;5058610;28;20493;-61
2021/09/15 09:45:17;;;;;;;9.67;8.77;;;20.00;99.90;;;;;;5058512;28;20724;-61
2021/09/15 09:47:46;;;;;;;11.33;10.47;;;19.90;99.90;;;;;;5057871;28;20486;-60
2021/09/15 09:50:15;;;;;;;10.17;9.30;;;19.90;99.90;;;;;;5058220;28;20484;-59
2021/09/15 09:52:57;;;;;;;11.17;10.17;;;19.90;99.90;;;;;;5053849;28;20460;-60
2021/09/15 09:55:25;;;;;;;10.80;9.70;;;20.00;1.00;;;;;;5058479;28;20451;-62
2021/09/15 09:57:53;;;;;;;9.90;9.00;;;20.00;99.90;;;;;;5057936;28;20490;-62
2021/09/15 10:00:24;;;;;;;10.17;9.27;;;20.00;1.00;;;;;;5057919;28;20519;-62
2021/09/15 10:02:53;;;;;;;11.50;9.60;;;20.00;1.00;;;;;;5058105;28;20446;-62
2021/09/15 10:05:22;;;;;;;12.80;9.40;;;20.00;99.90;;;;;;5056938;28;20843;-62
2021/09/15 10:07:49;;;;;;;10.67;9.23;;;19.90;99.90;;;;;;5057744;28;20511;-62
2021/09/15 10:10:18;;;;;;;10.97;9.97;;;20.00;1.00;;;;;;5056346;28;20466;-61
2021/09/15 10:12:46;;;;;;;10.47;9.30;;;20.00;99.90;;;;;;5057158;28;20516;-61
2021/09/15 10:15:14;;;;;;;10.77;9.77;;;19.90;99.90;;;;;;5057744;28;20461;-61
2021/09/15 10:17:48;;;;;;;9.83;8.93;;;19.90;99.90;;;;;;5058290;28;20479;-61
2021/09/15 10:20:21;;;;;;;10.93;8.97;;;20.00;99.90;;;;;;5057997;28;20493;-60
2021/09/15 10:22:52;;;;;;;10.23;9.27;;;20.00;99.90;;;;;;5057791;28;20471;-60
2021/09/15 10:25:34;;;;;;;9.80;9.00;;;20.20;99.90;;;;;;5057884;28;20938;-60
2021/09/15 10:28:04;;;;;;;10.10;8.70;;;20.10;99.90;;;;;;5046785;28;20536;-61
2021/09/15 10:30:45;;;;;;;9.40;8.40;;;20.10;92.60;;;;;;5057467;28;20473;-61
2021/09/15 10:33:46;;;;;;;11.17;10.07;;;20.10;1.00;;;;;;5057104;28;20973;-61
2021/09/15 10:36:43;;;;;;;10.23;9.00;;;20.00;1.00;;;;;;5057043;28;20468;-65
2021/09/15 10:39:12;;;;;;;12.50;10.57;;;20.00;15.60;;;;;;5056580;28;20932;-69
2021/09/15 10:41:41;;;;;;;12.07;11.03;;;19.90;99.90;;;;;;5057635;28;20433;-68
2021/09/15 10:44:10;;;;;;;9.57;8.77;;;19.80;99.90;;;;;;5058242;28;20469;-66
2021/09/15 10:46:38;;;;;;;11.23;9.03;;;19.70;99.90;;;;;;5057088;28;20574;-67
2021/09/15 10:49:45;;;;;;;12.00;10.70;;;19.60;99.90;;;;;;5056747;28;20785;-66
2021/09/15 10:52:30;;;;;;;11.10;10.03;;;19.60;99.90;;;;;;5046481;28;20458;-67
2021/09/15 10:54:59;;;;;;;12.10;10.47;;;19.60;99.90;;;;;;5056650;28;20540;-66
2021/09/15 10:57:40;;;;;;;11.30;10.23;;;19.70;99.90;;;;;;5056769;28;20483;-66
2021/09/15 11:00:27;;;;;;;11.70;10.70;;;19.90;99.90;;;;;;5057685;28;20447;-66
2021/09/15 11:02:56;;;;;;;10.90;10.00;;;20.00;99.90;;;;;;5061885;28;20428;-65
2021/09/15 11:05:43;;;;;;;10.40;9.50;;;20.10;99.90;;;;;;5056105;28;20561;-66
2021/09/15 11:08:39;;;;;;;10.57;9.57;;;20.10;99.90;;;;;;5052713;28;20473;-66
2021/09/15 11:11:08;;;;;;;10.03;9.20;;;20.20;99.90;;;;;;5047356;28;20839;-67
2021/09/15 11:14:04;;;;;;;9.77;8.40;;;20.30;99.90;;;;;;5056489;28;20458;-67
2021/09/15 11:16:38;;;;;;;9.10;8.23;;;20.40;99.90;;;;;;5057183;28;20462;-67
2021/09/15 11:19:11;;;;;;;8.47;7.83;;;20.40;99.90;;;;;;5055831;28;20806;-67
2021/09/15 11:21:41;;;;;;;7.77;7.17;;;20.30;99.90;;;;;;5056457;28;20470;-67
2021/09/15 11:24:12;;;;;;;8.40;7.80;;;20.20;99.90;;;;;;5056871;28;20523;-67
2021/09/15 11:26:46;;;;;;;8.80;7.93;;;20.20;99.90;;;;;;5056254;28;20497;-67
2021/09/15 11:29:14;;;;;;;10.37;9.50;;;20.10;99.90;;;;;;5056078;28;20499;-67
2021/09/15 11:31:43;;;;;;;11.23;10.33;;;20.00;99.90;;;;;;5056666;28;20505;-67
2021/09/15 11:34:12;;;;;;;10.03;9.23;;;19.90;99.90;;;;;;5056669;28;20497;-70
2021/09/15 11:36:45;;;;;;;11.33;10.27;;;19.90;99.90;;;;;;5056458;28;20462;-71
2021/09/15 11:39:21;;;;;;;10.60;9.60;;;19.80;99.90;;;;;;5053911;28;20466;-70
2021/09/15 11:41:47;;;;;;;10.20;9.23;;;19.70;99.90;;;;;;5056287;28;20497;-66
2021/09/15 11:44:14;;;;;;;11.57;10.47;;;19.70;99.90;;;;;;5055475;28;20973;-69
2021/09/15 11:46:44;;;;;;;9.70;8.80;;;19.70;99.90;;;;;;5055280;28;20497;-69
2021/09/15 11:49:14;;;;;;;8.60;7.70;;;19.70;99.90;;;;;;5055813;28;20498;-71
2021/09/15 11:51:43;;;;;;;6.90;6.30;;;19.60;99.90;;;;;;5056773;28;20848;-71
2021/09/15 11:54:12;;;;;;;7.17;6.47;;;19.50;99.90;;;;;;5056033;28;20468;-70
2021/09/15 11:56:44;;;;;;;6.13;5.63;;;19.50;99.90;;;;;;5056279;28;20462;-71
2021/09/15 11:59:13;;;;;;;5.70;5.30;;;19.50;99.90;;;;;;5055513;28;20474;-70
2021/09/15 12:01:42;;;;;;;5.13;4.73;;;19.60;99.90;;;;;;5057059;28;20486;-69
2021/09/15 12:04:16;;;;;;;4.90;4.50;;;19.60;99.90;;;;;;5056545;28;20554;-69
2021/09/15 12:06:44;;;;;;;6.83;3.30;;;19.70;99.90;;;;;;5058121;28;20525;-70
2021/09/15 12:09:11;;;;;;;3.07;2.87;;;19.80;99.90;;;;;;5058830;28;20820;-71
2021/09/15 12:11:48;;;;;;;3.20;2.80;;;19.80;99.90;;;;;;5059834;28;20531;-72
2021/09/15 12:14:15;;;;;;;3.90;3.50;;;19.90;99.90;;;;;;5060779;28;20466;-72
2021/09/15 12:16:44;;;;;;;3.73;3.10;;;20.10;99.90;;;;;;5060169;28;20926;-72
2021/09/15 12:19:15;;;;;;;2.77;2.53;;;20.20;99.90;;;;;;5055981;28;20520;-71
2021/09/15 12:21:46;;;;;;;3.47;2.93;;;20.50;99.90;;;;;;5060016;28;20462;-70
2021/09/15 12:24:14;;;;;;;4.77;2.77;;;20.70;99.90;;;;;;5059203;28;20469;-70
2021/09/15 12:26:42;;;;;;;3.80;3.50;;;21.00;99.90;;;;;;5059126;28;20566;-69
2021/09/15 12:29:11;;;;;;;3.57;3.30;;;21.20;99.90;;;;;;5060429;28;20526;-72
2021/09/15 12:31:45;;;;;;;2.90;2.70;;;21.30;99.90;;;;;;5060436;28;20813;-71
2021/09/15 12:34:13;;;;;;;4.30;3.90;;;21.40;99.90;;;;;;5059369;28;20493;-72
2021/09/15 12:36:40;;;;;;;3.70;3.40;;;21.50;99.90;;;;;;5060280;28;20457;-76
2021/09/15 12:39:18;;;;;;;4.13;3.83;;;21.50;45.20;;;;;;5060141;28;20462;-75
2021/09/15 12:41:57;;;;;;;3.90;3.60;;;21.50;99.90;;;;;;5059858;28;20465;-74
2021/09/15 12:44:34;;;;;;;5.20;4.70;;;21.30;99.90;;;;;;5058884;28;20920;-72
2021/09/15 12:47:08;;;;;;;5.60;5.10;;;21.30;99.90;;;;;;5059853;28;20489;-71
2021/09/15 12:49:37;;;;;;;14.23;5.83;;;21.30;99.90;;;;;;5058957;28;20464;-71
2021/09/15 12:52:08;;;;;;;7.07;6.47;;;21.20;99.90;;;;;;5059137;28;20441;-72
2021/09/15 12:54:38;;;;;;;7.60;7.00;;;21.20;99.90;;;;;;5058465;28;20543;-71